Time;durP1;ratioP1;P1;durP2;ratioP2;P2;SDS_P1;SDS_P2;PMS_P1;PMS_P2;Temp;Humidity;BMP_temperature;BMP_pressure;BME280_temperature;BME280_humidity;BME280_pressure;Samples;Min_cycle;Max_cycle;Signal;HPM_P1;HPM_P2
2022/11/23 00:00:23;;;;;;;;;;;;;;;;;;10539881;28;19928;-64
2022/11/23 00:05:25;;;;;;;;;;;;;;;;;;10539236;28;19924;-64
2022/11/23 00:10:28;;;;;;;;;;;;;;;;;;10540130;28;19928;-64
2022/11/23 00:15:31;;;;;;;;;;;;;;;;;;10539967;28;19928;-64
2022/11/23 00:20:33;;;;;;;;;;;;;;;;;;10545023;28;20332;-64
2022/11/23 00:25:35;;;;;;;;;;;;;;;;;;10548134;28;19924;-64
2022/11/23 00:30:37;;;;;;;;;;;;;;;;;;10529482;28;19985;-64
2022/11/23 00:35:39;;;;;;;;;;;;;;;;;;10548699;28;19965;-64
2022/11/23 00:40:41;;;;;;;;;;;;;;;;;;10547957;28;20377;-64
2022/11/23 00:45:43;;;;;;;;;;;;;;;;;;10547712;28;19978;-64
2022/11/23 00:50:46;;;;;;;;;;;;;;;;;;10546349;28;20436;-64
2022/11/23 00:55:48;;;;;;;;;;;;;;;;;;10546906;28;19977;-64
2022/11/23 01:00:50;;;;;;;;;;;;;;;;;;10547113;28;20379;-64
2022/11/23 01:05:52;;;;;;;;;;;;;;;;;;10546598;28;19932;-64
2022/11/23 01:10:54;;;;;;;;;;;;;;;;;;10545907;28;19947;-64
2022/11/23 01:15:56;;;;;;;;;;;;;;;;;;10546451;28;19931;-64
2022/11/23 01:20:58;;;;;;;;;;;;;;;;;;10546052;28;19931;-64
2022/11/23 01:26:00;;;;;;;;;;;;;;;;;;10546771;28;19928;-64
2022/11/23 01:31:02;;;;;;;;;;;;;;;;;;10544721;28;19989;-64
2022/11/23 01:36:04;;;;;;;;;;;;;;;;;;10545603;28;19928;-64
2022/11/23 01:41:06;;;;;;;;;;;;;;;;;;10546197;28;19931;-64
2022/11/23 01:46:08;;;;;;;;;;;;;;;;;;10545930;28;19924;-64
2022/11/23 01:51:10;;;;;;;;;;;;;;;;;;10544030;28;19935;-64
2022/11/23 01:56:12;;;;;;;;;;;;;;;;;;10544892;28;19924;-64
2022/11/23 02:01:14;;;;;;;;;;;;;;;;;;10545359;28;19924;-65
2022/11/23 02:06:17;;;;;;;;;;;;;;;;;;10544261;28;19928;-65
2022/11/23 02:11:19;;;;;;;;;;;;;;;;;;10544368;28;19925;-65
2022/11/23 02:16:21;;;;;;;;;;;;;;;;;;10544753;28;19932;-65
2022/11/23 02:21:23;;;;;;;;;;;;;;;;;;10543630;28;19970;-65
2022/11/23 02:26:25;;;;;;;;;;;;;;;;;;10544359;28;19977;-64
2022/11/23 02:31:27;;;;;;;;;;;;;;;;;;10542494;28;20379;-64
2022/11/23 02:36:30;;;;;;;;;;;;;;;;;;10543888;28;19931;-65
2022/11/23 02:41:32;;;;;;;;;;;;;;;;;;10542607;28;19924;-65
2022/11/23 02:46:34;;;;;;;;;;;;;;;;;;10542565;28;19931;-65
2022/11/23 02:51:36;;;;;;;;;;;;;;;;;;10542642;28;20313;-65
2022/11/23 02:56:38;;;;;;;;;;;;;;;;;;10541445;28;19932;-65
2022/11/23 03:01:40;;;;;;;;;;;;;;;;;;10542951;28;19928;-65
2022/11/23 03:06:42;;;;;;;;;;;;;;;;;;10542143;28;19924;-65
2022/11/23 03:11:44;;;;;;;;;;;;;;;;;;10540852;28;19925;-65
2022/11/23 03:16:47;;;;;;;;;;;;;;;;;;10541370;28;19924;-65
2022/11/23 03:21:49;;;;;;;;;;;;;;;;;;10541555;28;19924;-65
2022/11/23 03:26:51;;;;;;;;;;;;;;;;;;10541380;28;19932;-64
2022/11/23 03:31:53;;;;;;;;;;;;;;;;;;10540221;28;20436;-65
2022/11/23 03:36:55;;;;;;;;;;;;;;;;;;10540138;28;19924;-64
2022/11/23 03:41:57;;;;;;;;;;;;;;;;;;10539948;28;20291;-64
2022/11/23 03:46:59;;;;;;;;;;;;;;;;;;10540609;28;19924;-64
2022/11/23 03:52:01;;;;;;;;;;;;;;;;;;10540419;28;19931;-64
2022/11/23 03:57:03;;;;;;;;;;;;;;;;;;10539036;28;20383;-64
2022/11/23 04:02:06;;;;;;;;;;;;;;;;;;10523063;28;19928;-64
2022/11/23 04:07:09;;;;;;;;;;;;;;;;;;10539270;28;21300;-64
2022/11/23 04:12:11;;;;;;;;;;;;;;;;;;10540126;28;20428;-64
2022/11/23 04:17:13;;;;;;;;;;;;;;;;;;10538911;28;20280;-64
2022/11/23 04:22:15;;;;;;;;;;;;;;;;;;10522073;28;20285;-64
2022/11/23 04:27:17;;;;;;;;;;;;;;;;;;10540655;28;19924;-64
2022/11/23 04:32:19;;;;;;;;;;;;;;;;;;10539024;28;20329;-64
2022/11/23 04:37:21;;;;;;;;;;;;;;;;;;10539357;28;19932;-64
2022/11/23 04:42:23;;;;;;;;;;;;;;;;;;10540169;28;19928;-64
2022/11/23 04:47:25;;;;;;;;;;;;;;;;;;10539700;28;19924;-64
2022/11/23 04:52:27;;;;;;;;;;;;;;;;;;10539229;28;19924;-64
2022/11/23 04:57:29;;;;;;;;;;;;;;;;;;10538851;28;19924;-64
2022/11/23 05:02:31;;;;;;;;;;;;;;;;;;10522910;22;19925;-65
2022/11/23 05:07:33;;;;;;;;;;;;;;;;;;10420388;28;19925;-66
2022/11/23 05:12:36;;;;;;;;;;;;;;;;;;10422171;28;20394;-66
2022/11/23 05:17:38;;;;;;;;;;;;;;;;;;10421556;28;19925;-65
2022/11/23 05:22:40;;;;;;;;;;;;;;;;;;10422002;28;20367;-66
2022/11/23 05:27:42;;;;;;;;;;;;;;;;;;10422261;28;19979;-65
2022/11/23 05:32:44;;;;;;;;;;;;;;;;;;10420473;28;20422;-65
2022/11/23 05:37:46;;;;;;;;;;;;;;;;;;10420030;28;19925;-65
2022/11/23 05:42:48;;;;;;;;;;;;;;;;;;10421617;28;19932;-65
2022/11/23 05:47:50;;;;;;;;;;;;;;;;;;10420277;28;20292;-65
2022/11/23 05:52:52;;;;;;;;;;;;;;;;;;10420101;28;19983;-65
2022/11/23 05:57:54;;;;;;;;;;;;;;;;;;10419508;28;20395;-65
2022/11/23 06:02:56;;;;;;;;;;;;;;;;;;10420528;28;19926;-66
2022/11/23 06:07:58;;;;;;;;;;;;;;;;;;10419789;28;19925;-65
2022/11/23 06:13:00;;;;;;;;;;;;;;;;;;10420515;28;19975;-65
2022/11/23 06:18:02;;;;;;;;;;;;;;;;;;10419612;28;19929;-65
2022/11/23 06:23:04;;;;;;;;;;;;;;;;;;10418602;28;20376;-66
2022/11/23 06:28:07;;;;;;;;;;;;;;;;;;10418230;28;19925;-66
2022/11/23 06:33:09;;;;;;;;;;;;;;;;;;10419858;28;19925;-66
2022/11/23 06:38:11;;;;;;;;;;;;;;;;;;10418137;28;19929;-66
2022/11/23 06:43:13;;;;;;;;;;;;;;;;;;10418663;28;20384;-66
2022/11/23 06:48:15;;;;;;;;;;;;;;;;;;10419060;28;19930;-65
2022/11/23 06:53:17;;;;;;;;;;;;;;;;;;10417952;28;19971;-67
2022/11/23 06:58:19;;;;;;;;;;;;;;;;;;10418680;28;19929;-63
2022/11/23 07:03:21;;;;;;;;;;;;;;;;;;10416819;28;20277;-63
2022/11/23 07:08:23;;;;;;;;;;;;;;;;;;10415240;28;19936;-63
2022/11/23 07:13:25;;;;;;;;;;;;;;;;;;10417439;28;19925;-63
2022/11/23 07:18:27;;;;;;;;;;;;;;;;;;10417912;28;19924;-63
2022/11/23 07:23:29;;;;;;;;;;;;;;;;;;10417138;28;20376;-63
2022/11/23 07:28:31;;;;;;;;;;;;;;;;;;10415839;28;19940;-63
2022/11/23 07:33:33;;;;;;;;;;;;;;;;;;10416057;28;19936;-63
2022/11/23 07:38:36;;;;;;;;;;;;;;;;;;10417203;28;19979;-63
2022/11/23 07:43:38;;;;;;;;;;;;;;;;;;10416493;28;20265;-63
2022/11/23 07:48:40;;;;;;;;;;;;;;;;;;10416002;28;19925;-63
2022/11/23 07:53:42;;;;;;;;;;;;;;;;;;10416794;28;19932;-63
2022/11/23 07:58:44;;;;;;;;;;;;;;;;;;10414750;28;19929;-63
2022/11/23 08:03:46;;;;;;;;;;;;;;;;;;10414437;28;19956;-63
2022/11/23 08:08:48;;;;;;;;;;;;;;;;;;10413572;28;20375;-63
2022/11/23 08:13:50;;;;;;;;;;;;;;;;;;10415507;28;20430;-63
2022/11/23 08:18:52;;;;;;;;;;;;;;;;;;10414813;28;19933;-63
2022/11/23 08:23:54;;;;;;;;;;;;;;;;;;10415372;28;19975;-63
2022/11/23 08:28:56;;;;;;;;;;;;;;;;;;10416027;28;19925;-63
2022/11/23 08:33:58;;;;;;;;;;;;;;;;;;10415280;28;19925;-63
2022/11/23 08:39:04;;;;;;;;;;;;;;;;;;10415868;28;20016;-63
2022/11/23 08:44:11;;;;;;;;;;;;;;;;;;10423310;28;20320;-63
2022/11/23 08:49:13;;;;;;;;;;;;;;;;;;10421299;28;19932;-63
2022/11/23 08:54:15;;;;;;;;;;;;;;;;;;10422490;28;19928;-63
2022/11/23 08:59:17;;;;;;;;;;;;;;;;;;10421879;28;20376;-63
2022/11/23 09:04:19;;;;;;;;;;;;;;;;;;10421584;28;19925;-63
2022/11/23 09:09:21;;;;;;;;;;;;;;;;;;10422073;28;19925;-64
2022/11/23 09:14:24;;;;;;;;;;;;;;;;;;10420975;28;19925;-64
2022/11/23 09:19:26;;;;;;;;;;;;;;;;;;10421879;28;19932;-64
2022/11/23 09:24:28;;;;;;;;;;;;;;;;;;10421767;28;19925;-64
2022/11/23 09:29:30;;;;;;;;;;;;;;;;;;10422266;28;20011;-64
2022/11/23 09:34:32;;;;;;;;;;;;;;;;;;10421045;28;20434;-64
2022/11/23 09:39:34;;;;;;;;;;;;;;;;;;10421785;28;19937;-64
2022/11/23 09:44:36;;;;;;;;;;;;;;;;;;10421256;28;19926;-63
2022/11/23 09:49:38;;;;;;;;;;;;;;;;;;10421041;28;19978;-63
2022/11/23 09:54:40;;;;;;;;;;;;;;;;;;10420110;28;19925;-63
2022/11/23 09:59:43;;;;;;;;;;;;;;;;;;10419823;28;19932;-63
2022/11/23 10:04:45;;;;;;;;;;;;;;;;;;10418860;28;19929;-64
2022/11/23 10:09:47;;;;;;;;;;;;;;;;;;10420945;28;19925;-63
2022/11/23 10:14:49;;;;;;;;;;;;;;;;;;10419105;28;19951;-63
2022/11/23 10:19:51;;;;;;;;;;;;;;;;;;10420190;28;20372;-64
2022/11/23 10:24:53;;;;;;;;;;;;;;;;;;10419083;28;19982;-64
2022/11/23 10:29:55;;;;;;;;;;;;;;;;;;10417980;28;19956;-63
2022/11/23 10:34:57;;;;;;;;;;;;;;;;;;10415762;28;19929;-63
2022/11/23 10:39:59;;;;;;;;;;;;;;;;;;10417885;28;19975;-64
2022/11/23 10:45:03;;;;;;;;;;;;;;;;;;10417597;28;20335;-64
2022/11/23 10:50:05;;;;;;;;;;;;;;;;;;10419151;28;19929;-64
2022/11/23 10:55:08;;;;;;;;;;;;;;;;;;10417725;28;19925;-63
2022/11/23 11:00:10;;;;;;;;;;;;;;;;;;10417745;28;19980;-63
2022/11/23 11:05:12;;;;;;;;;;;;;;;;;;10417722;28;19925;-64
2022/11/23 11:10:14;;;;;;;;;;;;;;;;;;10417632;28;20327;-64
2022/11/23 11:15:16;;;;;;;;;;;;;;;;;;10417554;28;19932;-63
2022/11/23 11:20:18;;;;;;;;;;;;;;;;;;10417891;28;19979;-64
2022/11/23 11:25:20;;;;;;;;;;;;;;;;;;10417379;28;19925;-63
2022/11/23 11:30:22;;;;;;;;;;;;;;;;;;10416550;28;19925;-63
2022/11/23 11:35:24;;;;;;;;;;;;;;;;;;10416450;28;19979;-64
2022/11/23 11:40:26;;;;;;;;;;;;;;;;;;10416999;28;19925;-64
2022/11/23 11:45:28;;;;;;;;;;;;;;;;;;10415321;28;19936;-64
2022/11/23 11:50:31;;;;;;;;;;;;;;;;;;10415911;28;19926;-64
2022/11/23 11:55:33;;;;;;;;;;;;;;;;;;10416814;28;19925;-64
2022/11/23 12:00:35;;;;;;;;;;;;;;;;;;10416567;28;19944;-64
2022/11/23 12:05:41;;;;;;;;;;;;;;;;;;10415362;28;20011;-64
2022/11/23 12:10:44;;;;;;;;;;;;;;;;;;10385020;28;20292;-64
2022/11/23 12:15:46;;;;;;;;;;;;;;;;;;10402467;28;19979;-64
2022/11/23 12:20:51;;;;;;;;;;;;;;;;;;10414298;28;19929;-64
2022/11/23 12:25:53;;;;;;;;;;;;;;;;;;10416309;28;19925;-64
2022/11/23 12:30:55;;;;;;;;;;;;;;;;;;10414533;28;20399;-64
2022/11/23 12:35:57;;;;;;;;;;;;;;;;;;10415186;28;19929;-64
2022/11/23 12:40:59;;;;;;;;;;;;;;;;;;10413243;28;19956;-64
2022/11/23 12:46:01;;;;;;;;;;;;;;;;;;10414933;28;19929;-64
2022/11/23 12:51:03;;;;;;;;;;;;;;;;;;10415004;28;20293;-64
2022/11/23 12:56:05;;;;;;;;;;;;;;;;;;10415531;28;19933;-66
2022/11/23 13:01:08;;;;;;;;;;;;;;;;;;10414433;28;20308;-64
2022/11/23 13:06:10;;;;;;;;;;;;;;;;;;10414550;28;20032;-64
2022/11/23 13:11:12;;;;;;;;;;;;;;;;;;10412295;28;20376;-64
2022/11/23 13:16:14;;;;;;;;;;;;;;;;;;10412036;28;19933;-64
2022/11/23 13:21:16;;;;;;;;;;;;;;;;;;10414908;28;19925;-64
2022/11/23 13:26:18;;;;;;;;;;;;;;;;;;10413042;28;19932;-64
2022/11/23 13:31:22;;;;;;;;;;;;;;;;;;10420063;28;20403;-63
2022/11/23 13:36:24;;;;;;;;;;;;;;;;;;10420817;28;19925;-63
2022/11/23 13:41:44;;;;;;;;;;;;;;;;;;10420363;28;20373;-63
2022/11/23 13:46:46;;;;;;;;;;;;;;;;;;10420175;28;19928;-63
2022/11/23 13:51:48;;;;;;;;;;;;;;;;;;10420127;28;20017;-64
2022/11/23 13:56:50;;;;;;;;;;;;;;;;;;10419235;28;19925;-63
2022/11/23 14:01:52;;;;;;;;;;;;;;;;;;10420166;28;19925;-64
2022/11/23 14:06:56;;;;;;;;;;;;;;;;;;10418657;28;20051;-64
2022/11/23 14:11:58;;;;;;;;;;;;;;;;;;10419986;28;19925;-63
2022/11/23 14:17:00;;;;;;;;;;;;;;;;;;10419720;28;19984;-64
2022/11/23 14:22:07;;;;;;;;;;;;;;;;;;10418496;28;19932;-64
2022/11/23 14:27:12;;;;;;;;;;;;;;;;;;10419185;28;19979;-63
2022/11/23 14:32:34;;;;;;;;;;;;;;;;;;10417677;28;20400;-64
2022/11/23 14:37:36;;;;;;;;;;;;;;;;;;10418073;28;19929;-63
2022/11/23 14:42:38;;;;;;;;;;;;;;;;;;10418879;28;20376;-63
2022/11/23 14:47:40;;;;;;;;;;;;;;;;;;10418456;28;19932;-63
2022/11/23 14:52:42;;;;;;;;;;;;;;;;;;10417833;28;19925;-64
2022/11/23 14:57:45;;;;;;;;;;;;;;;;;;10417824;28;19925;-64
2022/11/23 15:02:48;;;;;;;;;;;;;;;;;;10418449;28;19925;-64
2022/11/23 15:07:50;;;;;;;;;;;;;;;;;;10417838;28;19925;-63
2022/11/23 15:12:52;;;;;;;;;;;;;;;;;;10412352;28;20388;-63
2022/11/23 15:17:54;;;;;;;;;;;;;;;;;;10417971;28;19925;-63
2022/11/23 15:22:56;;;;;;;;;;;;;;;;;;10417157;28;20438;-63
2022/11/23 15:27:58;;;;;;;;;;;;;;;;;;10417191;28;19925;-63
2022/11/23 15:33:01;;;;;;;;;;;;;;;;;;10416904;28;20288;-63
2022/11/23 15:38:03;;;;;;;;;;;;;;;;;;10417312;28;19926;-64
2022/11/23 15:43:05;;;;;;;;;;;;;;;;;;10417344;28;19925;-63
2022/11/23 15:48:07;;;;;;;;;;;;;;;;;;10416547;28;19925;-63
2022/11/23 15:53:09;;;;;;;;;;;;;;;;;;10408170;28;20373;-63
2022/11/23 15:58:11;;;;;;;;;;;;;;;;;;10375855;28;19932;-63
2022/11/23 16:03:13;;;;;;;;;;;;;;;;;;10411259;28;19932;-63
2022/11/23 16:08:15;;;;;;;;;;;;;;;;;;10415839;28;20380;-63
2022/11/23 16:13:17;;;;;;;;;;;;;;;;;;10414834;28;19929;-63
2022/11/23 16:18:20;;;;;;;;;;;;;;;;;;10416103;28;19925;-63
2022/11/23 16:23:22;;;;;;;;;;;;;;;;;;10416154;28;19983;-64
2022/11/23 16:28:24;;;;;;;;;;;;;;;;;;10414859;28;20327;-63
2022/11/23 16:33:26;;;;;;;;;;;;;;;;;;10414691;28;19933;-64
2022/11/23 16:38:28;;;;;;;;;;;;;;;;;;10414988;28;19926;-65
2022/11/23 16:43:30;;;;;;;;;;;;;;;;;;10414451;28;19924;-64
2022/11/23 16:48:32;;;;;;;;;;;;;;;;;;10414901;28;19926;-64
2022/11/23 16:53:34;;;;;;;;;;;;;;;;;;10414891;28;19925;-64
2022/11/23 16:58:56;;;;;;;;;;;;;;;;;;10414089;28;20303;-64
2022/11/23 17:03:58;;;;;;;;;;;;;;;;;;10420808;28;20391;-64
2022/11/23 17:09:00;;;;;;;;;;;;;;;;;;10421651;28;20368;-63
2022/11/23 17:14:08;;;;;;;;;;;;;;;;;;10422318;28;19925;-64
2022/11/23 17:19:14;;;;;;;;;;;;;;;;;;10408368;22;19930;-64
2022/11/23 17:24:16;;;;;;;;;;;;;;;;;;10380385;28;19933;-65
2022/11/23 17:29:19;;;;;;;;;;;;;;;;;;10378723;28;19925;-65
2022/11/23 17:34:21;;;;;;;;;;;;;;;;;;10378504;28;19926;-65
2022/11/23 17:39:23;;;;;;;;;;;;;;;;;;10378873;28;19933;-65
2022/11/23 17:44:25;;;;;;;;;;;;;;;;;;10380982;28;19930;-65
2022/11/23 17:49:27;;;;;;;;;;;;;;;;;;10380537;28;19929;-65
2022/11/23 17:54:29;;;;;;;;;;;;;;;;;;10379990;28;19932;-65
2022/11/23 17:59:32;;;;;;;;;;;;;;;;;;10379616;28;19925;-65
2022/11/23 18:04:35;;;;;;;;;;;;;;;;;;10380242;28;19975;-65
2022/11/23 18:09:37;;;;;;;;;;;;;;;;;;10379847;28;19930;-65
2022/11/23 18:14:39;;;;;;;;;;;;;;;;;;10378384;28;20431;-65
2022/11/23 18:19:41;;;;;;;;;;;;;;;;;;10378746;28;19925;-65
2022/11/23 18:24:43;;;;;;;;;;;;;;;;;;10379346;28;19926;-65
2022/11/23 18:29:46;;;;;;;;;;;;;;;;;;10378416;28;19933;-65
2022/11/23 18:34:48;;;;;;;;;;;;;;;;;;10379009;28;19948;-65
2022/11/23 18:39:50;;;;;;;;;;;;;;;;;;10361259;28;19929;-65
2022/11/23 18:44:52;;;;;;;;;;;;;;;;;;10377906;28;20016;-65
2022/11/23 18:49:54;;;;;;;;;;;;;;;;;;10377412;28;19925;-65
2022/11/23 18:54:58;;;;;;;;;;;;;;;;;;10376994;28;19926;-65
2022/11/23 19:00:00;;;;;;;;;;;;;;;;;;10377961;28;19925;-65
2022/11/23 19:05:03;;;;;;;;;;;;;;;;;;10377893;28;19929;-65
2022/11/23 19:10:05;;;;;;;;;;;;;;;;;;10377083;28;19972;-65
2022/11/23 19:15:08;;;;;;;;;;;;;;;;;;10377557;28;19925;-65
2022/11/23 19:20:10;;;;;;;;;;;;;;;;;;10376224;28;19976;-65
2022/11/23 19:25:12;;;;;;;;;;;;;;;;;;10374513;28;20372;-65
2022/11/23 19:30:14;;;;;;;;;;;;;;;;;;10361788;28;19971;-65
2022/11/23 19:35:17;;;;;;;;;;;;;;;;;;10373767;28;20029;-65
2022/11/23 19:40:19;;;;;;;;;;;;;;;;;;10374390;28;19988;-65
2022/11/23 19:45:21;;;;;;;;;;;;;;;;;;10375750;28;19940;-65
2022/11/23 19:50:23;;;;;;;;;;;;;;;;;;10376151;28;19929;-65
2022/11/23 19:55:27;;;;;;;;;;;;;;;;;;10340303;28;20420;-65
2022/11/23 20:00:29;;;;;;;;;;;;;;;;;;10335277;28;19925;-65
2022/11/23 20:05:31;;;;;;;;;;;;;;;;;;10340796;28;19925;-65
2022/11/23 20:10:33;;;;;;;;;;;;;;;;;;10345422;28;19988;-65
2022/11/23 20:15:35;;;;;;;;;;;;;;;;;;10368521;28;19955;-65
2022/11/23 20:20:38;;;;;;;;;;;;;;;;;;10363975;28;19975;-65
2022/11/23 20:25:40;;;;;;;;;;;;;;;;;;10370565;28;20336;-65
2022/11/23 20:30:42;;;;;;;;;;;;;;;;;;10373969;28;19925;-65
2022/11/23 20:35:44;;;;;;;;;;;;;;;;;;10351004;28;19975;-65
2022/11/23 20:40:46;;;;;;;;;;;;;;;;;;10370241;28;19932;-65
2022/11/23 20:45:49;;;;;;;;;;;;;;;;;;10361278;28;19936;-65
2022/11/23 20:50:51;;;;;;;;;;;;;;;;;;10366851;28;19925;-65
2022/11/23 20:55:53;;;;;;;;;;;;;;;;;;10347860;28;19933;-65
2022/11/23 21:00:56;;;;;;;;;;;;;;;;;;10356982;28;19925;-65
2022/11/23 21:05:58;;;;;;;;;;;;;;;;;;10362218;28;19937;-65
2022/11/23 21:16:20;;;;;;;;;;;;;;;;;;10377618;28;19948;-65
2022/11/23 21:21:22;;;;;;;;;;;;;;;;;;10377438;28;19926;-65
2022/11/23 21:26:25;;;;;;;;;;;;;;;;;;10374085;28;19926;-65
2022/11/23 21:31:28;;;;;;;;;;;;;;;;;;10377401;28;19925;-65
2022/11/23 21:36:31;;;;;;;;;;;;;;;;;;10379944;28;20315;-65
2022/11/23 21:41:33;;;;;;;;;;;;;;;;;;10354040;28;19929;-65
2022/11/23 21:46:35;;;;;;;;;;;;;;;;;;10379303;28;19933;-65
2022/11/23 21:51:38;;;;;;;;;;;;;;;;;;10379059;28;19936;-65
2022/11/23 21:56:40;;;;;;;;;;;;;;;;;;10360175;28;19933;-65
2022/11/23 22:01:42;;;;;;;;;;;;;;;;;;10356068;28;19925;-65
2022/11/23 22:06:44;;;;;;;;;;;;;;;;;;10345528;28;19925;-65
2022/11/23 22:11:46;;;;;;;;;;;;;;;;;;10375898;28;19926;-65
2022/11/23 22:16:48;;;;;;;;;;;;;;;;;;10375791;28;20439;-65
2022/11/23 22:21:51;;;;;;;;;;;;;;;;;;10377668;28;19932;-65
2022/11/23 22:26:53;;;;;;;;;;;;;;;;;;10379062;28;19925;-65
2022/11/23 22:31:55;;;;;;;;;;;;;;;;;;10376022;28;19984;-65
2022/11/23 22:36:57;;;;;;;;;;;;;;;;;;10338426;28;19961;-65
2022/11/23 22:41:59;;;;;;;;;;;;;;;;;;10372046;28;19929;-65
2022/11/23 22:47:01;;;;;;;;;;;;;;;;;;10377333;28;19929;-65
2022/11/23 22:52:03;;;;;;;;;;;;;;;;;;10378329;28;19984;-65
2022/11/23 22:57:05;;;;;;;;;;;;;;;;;;10378166;28;19926;-65
2022/11/23 23:02:07;;;;;;;;;;;;;;;;;;10376522;28;20373;-65
2022/11/23 23:07:09;;;;;;;;;;;;;;;;;;10376524;28;19987;-65
2022/11/23 23:12:11;;;;;;;;;;;;;;;;;;10377691;28;19925;-65
2022/11/23 23:17:13;;;;;;;;;;;;;;;;;;10377139;28;19952;-65
2022/11/23 23:22:16;;;;;;;;;;;;;;;;;;10360549;28;19926;-65
2022/11/23 23:27:18;;;;;;;;;;;;;;;;;;10336487;28;19993;-65
2022/11/23 23:32:20;;;;;;;;;;;;;;;;;;10336297;28;19926;-65
2022/11/23 23:37:23;;;;;;;;;;;;;;;;;;10367569;28;19972;-65
2022/11/23 23:42:25;;;;;;;;;;;;;;;;;;10375780;28;19971;-65
2022/11/23 23:47:27;;;;;;;;;;;;;;;;;;10375755;28;19926;-65
2022/11/23 23:52:29;;;;;;;;;;;;;;;;;;10375609;28;19987;-65
2022/11/23 23:57:31;;;;;;;;;;;;;;;;;;10374817;28;19972;-65
